createdAt,value
2022-08-30T05:55:05.577Z,977.55
2022-08-30T05:56:09.040Z,977.59
2022-08-30T05:57:06.334Z,977.59
2022-08-30T05:58:06.381Z,977.55
2022-08-30T05:59:06.365Z,977.63
2022-08-30T06:00:06.336Z,977.65
2022-08-30T06:01:06.311Z,977.58
2022-08-30T06:02:06.383Z,977.62
2022-08-30T06:03:06.313Z,977.63
2022-08-30T06:04:07.053Z,977.57
2022-08-30T06:05:06.307Z,977.60
2022-08-30T06:06:06.266Z,977.60
2022-08-30T06:07:06.263Z,977.56
2022-08-30T06:08:06.223Z,977.55
2022-08-30T06:09:06.306Z,977.62
2022-08-30T06:10:06.232Z,977.55
2022-08-30T06:11:06.182Z,977.58
2022-08-30T06:12:06.205Z,977.56
2022-08-30T06:13:06.166Z,977.53
2022-08-30T06:14:06.220Z,977.54
2022-08-30T06:15:06.152Z,977.53
2022-08-30T06:16:06.202Z,977.49
2022-08-30T06:17:06.123Z,977.52
2022-08-30T06:18:06.142Z,977.50
2022-08-30T06:19:06.111Z,977.53
2022-08-30T06:20:06.129Z,977.48
2022-08-30T06:21:06.083Z,977.57
2022-08-30T06:22:06.097Z,977.55
2022-08-30T06:23:06.042Z,977.54
2022-08-30T06:24:06.050Z,977.53
2022-08-30T06:25:06.041Z,977.50
2022-08-30T06:26:06.093Z,977.52
2022-08-30T06:27:06.035Z,977.51
2022-08-30T06:28:05.996Z,977.60
2022-08-30T06:29:05.995Z,977.55
2022-08-30T06:30:06.044Z,977.53
2022-08-30T06:31:06.013Z,977.56
2022-08-30T06:32:05.971Z,977.55
2022-08-30T06:51:27.708Z,977.74
2022-08-30T06:52:27.994Z,977.70
2022-08-30T06:53:27.584Z,977.69
2022-08-30T06:54:27.659Z,977.67
2022-08-30T06:55:27.487Z,977.69
2022-08-30T06:56:28.634Z,977.72
2022-08-30T06:57:28.584Z,977.66
2022-08-30T06:58:28.577Z,977.73
2022-08-30T06:59:28.577Z,977.71
2022-08-30T07:00:28.572Z,977.72
2022-08-30T07:03:38.371Z,977.68
2022-08-30T07:04:37.532Z,977.66
2022-08-30T07:05:37.600Z,977.61
2022-08-30T07:06:37.494Z,977.61
2022-08-30T07:07:37.427Z,977.56
2022-08-30T07:08:37.434Z,977.63
2022-08-30T07:09:37.416Z,977.62
2022-08-30T07:10:37.384Z,977.67
2022-08-30T07:11:37.383Z,977.65
2022-08-30T07:12:37.413Z,977.62
2022-08-30T07:13:37.359Z,977.69
2022-08-30T07:14:37.398Z,977.67
2022-08-30T07:15:38.605Z,977.72
2022-08-30T07:16:38.452Z,977.70
2022-08-30T07:17:38.456Z,977.70
2022-08-30T07:18:38.572Z,977.65
2022-08-30T07:19:38.428Z,977.65
2022-08-30T07:20:40.603Z,977.69
2022-08-30T07:21:38.411Z,977.72
2022-08-30T07:22:38.449Z,977.70
2022-08-30T07:23:38.366Z,977.68
2022-08-30T07:24:38.342Z,977.66
2022-08-30T07:25:38.344Z,977.69
2022-08-30T07:26:38.350Z,977.72
2022-08-30T07:27:38.352Z,977.77
2022-08-30T07:28:38.306Z,977.79
2022-08-30T07:29:38.301Z,977.72
2022-08-30T07:30:38.303Z,977.81
2022-08-30T07:31:38.286Z,977.73
2022-08-30T07:32:38.274Z,977.76
2022-08-30T07:33:38.267Z,977.79
2022-08-30T07:34:38.251Z,977.76
2022-08-30T07:35:38.228Z,977.75
2022-08-30T07:36:38.207Z,977.72
2022-08-30T07:37:38.213Z,977.74
2022-08-30T07:38:38.212Z,977.72
2022-08-30T07:39:44.493Z,977.76
2022-08-30T07:40:38.244Z,977.68
2022-08-30T07:41:38.167Z,977.69
2022-08-30T07:42:38.160Z,977.73
2022-08-30T07:43:38.159Z,977.70
2022-08-30T07:44:38.122Z,977.64
2022-08-30T07:45:38.122Z,977.74
2022-08-30T07:46:38.149Z,977.76
2022-08-30T07:47:38.113Z,977.69
2022-08-30T07:48:38.136Z,977.74
2022-08-30T07:49:38.149Z,977.72
2022-08-30T07:50:38.079Z,977.81
2022-08-30T07:51:38.051Z,977.78
2022-08-30T07:53:38.125Z,977.81
2022-08-30T07:54:38.036Z,977.77
2022-08-30T07:55:38.030Z,977.75
2022-08-30T07:56:37.990Z,977.75
2022-08-30T07:57:38.013Z,977.70
2022-08-30T07:58:37.979Z,977.73
2022-08-30T07:59:38.011Z,977.73
2022-08-30T08:00:38.023Z,977.71
2022-08-30T08:01:38.035Z,977.75
2022-08-30T08:02:37.982Z,977.71
2022-08-30T08:03:37.927Z,977.69
2022-08-30T08:04:37.938Z,977.75
2022-08-30T08:05:37.944Z,977.75
2022-08-30T08:06:37.901Z,977.70
2022-08-30T08:07:37.879Z,977.73
2022-08-30T08:08:37.894Z,977.72
2022-08-30T08:09:37.893Z,977.74
2022-08-30T08:10:37.860Z,977.73
2022-08-30T08:11:37.851Z,977.72
2022-08-30T08:12:37.835Z,977.77
2022-08-30T08:13:50.636Z,977.72
2022-08-30T08:14:37.830Z,977.74
2022-08-30T08:15:37.860Z,977.78
2022-08-30T08:16:37.804Z,977.75
2022-08-30T08:17:37.785Z,977.75
2022-08-30T08:18:37.783Z,977.81
2022-08-30T08:19:37.849Z,977.79
2022-08-30T08:20:37.762Z,977.79
2022-08-30T08:21:37.734Z,977.84
2022-08-30T08:22:40.037Z,977.88
2022-08-30T08:23:38.743Z,977.88
2022-08-30T08:24:37.758Z,977.84
2022-08-30T08:25:37.671Z,977.84
2022-08-30T08:26:37.711Z,977.88
2022-08-30T08:27:37.649Z,977.89
2022-08-30T08:28:37.645Z,977.88
2022-08-30T08:29:37.668Z,977.85
2022-08-30T08:30:37.653Z,977.87
2022-08-30T08:31:37.698Z,977.88
2022-08-30T08:32:37.638Z,977.89
2022-08-30T08:33:37.581Z,977.88
2022-08-30T08:34:37.719Z,977.88
2022-08-30T08:35:37.726Z,977.81
2022-08-30T08:36:37.808Z,977.89
2022-08-30T08:37:37.641Z,977.87
2022-08-30T08:38:37.852Z,977.83
2022-08-30T08:39:37.522Z,977.90
2022-08-30T08:40:37.637Z,977.87
2022-08-30T08:41:37.528Z,977.88
2022-08-30T08:42:37.489Z,977.83
2022-08-30T08:43:37.497Z,977.87
2022-08-30T08:44:37.497Z,977.87
2022-08-30T08:45:37.465Z,977.89
2022-08-30T08:46:37.702Z,977.86
2022-08-30T08:47:37.436Z,977.89
2022-08-30T08:48:58.461Z,977.89
2022-08-30T08:49:37.418Z,977.89
2022-08-30T08:50:37.422Z,977.88
2022-08-30T08:51:37.405Z,977.89
2022-08-30T08:52:37.405Z,977.86
2022-08-30T08:53:50.167Z,977.83
2022-08-30T08:54:39.361Z,977.86
2022-08-30T08:55:37.560Z,977.82
2022-08-30T08:56:37.349Z,977.82
2022-08-30T08:57:37.340Z,977.86
2022-08-30T08:58:37.311Z,977.84
2022-08-30T08:59:37.314Z,977.90
2022-08-30T09:00:37.304Z,977.81
2022-08-30T09:01:37.320Z,977.78
2022-08-30T09:02:37.273Z,977.77
2022-08-30T09:03:37.254Z,977.82
2022-08-30T09:04:37.269Z,977.85
2022-08-30T09:05:37.224Z,977.75
2022-08-30T09:06:37.254Z,977.79
2022-08-30T09:07:37.213Z,977.80
2022-08-30T09:08:37.195Z,977.79
2022-08-30T09:09:37.197Z,977.77
2022-08-30T09:10:49.773Z,977.77
2022-08-30T09:11:37.183Z,977.76
2022-08-30T09:12:37.164Z,977.77
2022-08-30T09:13:37.124Z,977.75
2022-08-30T09:14:38.877Z,977.78
2022-08-30T09:15:37.146Z,977.78
2022-08-30T09:16:37.154Z,977.82
2022-08-30T09:17:37.098Z,977.82
2022-08-30T09:18:37.081Z,977.78
2022-08-30T09:19:37.069Z,977.82
2022-08-30T09:20:37.093Z,977.83
2022-08-30T09:21:37.096Z,977.79
2022-08-30T09:22:37.049Z,977.83
2022-08-30T09:23:37.013Z,977.82
2022-08-30T09:24:37.044Z,977.76
2022-08-30T09:25:41.646Z,977.77
2022-08-30T09:26:37.013Z,977.76
2022-08-30T09:27:37.041Z,977.78
2022-08-30T09:28:36.999Z,977.74
2022-08-30T09:29:36.957Z,977.74
2022-08-30T09:30:37.009Z,977.76
2022-08-30T09:31:36.969Z,977.77
2022-08-30T09:32:36.956Z,977.68
2022-08-30T09:33:36.973Z,977.77
2022-08-30T09:34:36.906Z,977.70
2022-08-30T09:35:36.917Z,977.79
2022-08-30T09:36:36.922Z,977.83
2022-08-30T09:37:36.907Z,977.74
2022-08-30T09:38:36.892Z,977.81
2022-08-30T09:39:36.863Z,977.80
2022-08-30T09:40:36.900Z,977.84
2022-08-30T09:41:37.350Z,977.77
2022-08-30T09:42:37.911Z,977.76
2022-08-30T09:43:36.866Z,977.77
2022-08-30T09:44:36.825Z,977.78
2022-08-30T09:45:36.800Z,977.78
2022-08-30T09:46:36.838Z,977.76
2022-08-30T09:47:36.839Z,977.69
2022-08-30T09:48:36.779Z,977.83
2022-08-30T09:49:36.755Z,977.76
2022-08-30T09:50:37.198Z,977.80
2022-08-30T09:51:36.736Z,977.78
2022-08-30T09:52:36.765Z,977.74
2022-08-30T09:53:36.745Z,977.71
2022-08-30T09:54:36.738Z,977.75
2022-08-30T09:55:36.685Z,977.69
2022-08-30T09:56:36.741Z,977.65
2022-08-30T09:57:36.675Z,977.67
2022-08-30T09:58:36.674Z,977.65
2022-08-30T09:59:36.644Z,977.59
2022-08-30T10:00:36.664Z,977.61
2022-08-30T10:01:36.657Z,977.57
2022-08-30T10:02:36.633Z,977.60
2022-08-30T10:03:40.736Z,977.62
2022-08-30T10:04:36.579Z,977.60
2022-08-30T10:05:36.767Z,977.57
2022-08-30T10:06:36.637Z,977.57
2022-08-30T10:07:36.586Z,977.60
2022-08-30T10:08:36.589Z,977.60
2022-08-30T10:09:36.583Z,977.58
2022-08-30T10:10:36.548Z,977.57
2022-08-30T10:11:36.540Z,977.56
2022-08-30T10:12:36.506Z,977.50
2022-08-30T10:13:36.550Z,977.55
2022-08-30T10:14:36.673Z,977.46
2022-08-30T10:15:36.703Z,977.50
2022-08-30T10:16:36.907Z,977.51
2022-08-30T10:17:36.601Z,977.43
2022-08-30T10:18:36.735Z,977.50
2022-08-30T10:19:36.653Z,977.46
2022-08-30T10:20:36.478Z,977.43
2022-08-30T10:21:36.465Z,977.43
2022-08-30T10:22:36.406Z,977.47
2022-08-30T10:23:36.393Z,977.40
2022-08-30T10:24:36.442Z,977.40
2022-08-30T10:25:36.392Z,977.38
2022-08-30T10:26:36.345Z,977.36
2022-08-30T10:27:36.341Z,977.42
2022-08-30T10:28:36.410Z,977.39
2022-08-30T10:29:39.499Z,977.40
2022-08-30T10:30:37.425Z,977.46
2022-08-30T10:31:36.543Z,977.38
2022-08-30T10:32:36.280Z,977.37
2022-08-30T10:33:36.326Z,977.39
2022-08-30T10:34:36.282Z,977.25
2022-08-30T10:35:38.963Z,977.30
2022-08-30T10:36:37.027Z,977.33
2022-08-30T10:37:36.279Z,977.38
2022-08-30T10:38:36.210Z,977.29
2022-08-30T10:39:36.255Z,977.34
2022-08-30T10:40:36.378Z,977.30
2022-08-30T10:41:36.250Z,977.36
2022-08-30T10:42:39.926Z,977.43
2022-08-30T10:43:36.177Z,977.39
2022-08-30T10:44:36.239Z,977.32
2022-08-30T10:45:36.886Z,977.30
2022-08-30T10:46:36.152Z,977.35
2022-08-30T10:47:36.134Z,977.33
2022-08-30T10:48:36.164Z,977.38
2022-08-30T10:49:36.119Z,977.39
2022-08-30T10:50:41.173Z,977.33
2022-08-30T10:51:37.096Z,977.43
2022-08-30T10:52:36.109Z,977.41
2022-08-30T10:53:36.052Z,977.36
2022-08-30T10:54:36.051Z,977.40
2022-08-30T10:55:36.064Z,977.36
2022-08-30T10:56:36.035Z,977.40
2022-08-30T10:57:36.055Z,977.35
2022-08-30T10:58:36.000Z,977.34
2022-08-30T10:59:36.000Z,977.36
2022-08-30T11:00:36.023Z,977.29
2022-08-30T11:01:35.989Z,977.33
2022-08-30T11:02:35.971Z,977.31
2022-08-30T11:03:36.034Z,977.35
2022-08-30T11:04:35.961Z,977.37
2022-08-30T11:05:35.992Z,977.32
2022-08-30T11:06:35.917Z,977.36
2022-08-30T11:07:35.908Z,977.37
2022-08-30T11:08:35.926Z,977.37
2022-08-30T11:09:36.076Z,977.36
2022-08-30T11:10:35.932Z,977.31
2022-08-30T11:11:35.886Z,977.37
2022-08-30T11:12:35.879Z,977.31
2022-08-30T11:13:35.855Z,977.31
2022-08-30T11:14:35.851Z,977.36
2022-08-30T11:15:35.838Z,977.41
2022-08-30T11:16:35.880Z,977.40
2022-08-30T11:17:35.807Z,977.39
2022-08-30T11:18:35.815Z,977.40
2022-08-30T11:19:35.811Z,977.32
2022-08-30T11:20:35.801Z,977.38
2022-08-30T11:21:35.817Z,977.35
2022-08-30T11:22:39.027Z,977.35
2022-08-30T11:23:35.762Z,977.29
2022-08-30T11:24:35.722Z,977.32
2022-08-30T11:25:38.573Z,977.34
2022-08-30T11:26:35.745Z,977.33
2022-08-30T11:27:35.712Z,977.23
2022-08-30T11:28:35.711Z,977.25
2022-08-30T11:29:35.688Z,977.33
2022-08-30T11:30:35.724Z,977.33
2022-08-30T11:31:35.711Z,977.32
2022-08-30T11:32:35.666Z,977.31
2022-08-30T11:33:35.653Z,977.32
2022-08-30T11:34:35.630Z,977.31
2022-08-30T11:35:35.629Z,977.27
2022-08-30T11:36:37.932Z,977.26
2022-08-30T11:37:35.614Z,977.23
2022-08-30T11:38:35.574Z,977.19
2022-08-30T11:39:35.568Z,977.20
2022-08-30T11:40:35.577Z,977.17
2022-08-30T11:41:40.851Z,977.13
2022-08-30T11:42:35.913Z,977.21
2022-08-30T11:43:36.693Z,977.24
2022-08-30T11:44:35.530Z,977.14
2022-08-30T11:45:35.604Z,977.13
2022-08-30T11:46:35.505Z,977.13
2022-08-30T11:47:35.547Z,977.10
2022-08-30T11:48:35.476Z,977.20
2022-08-30T11:49:35.450Z,977.19
2022-08-30T11:50:35.467Z,977.21
2022-08-30T11:51:35.440Z,977.20
2022-08-30T11:52:35.458Z,977.18
2022-08-30T11:53:35.420Z,977.19
2022-08-30T11:54:35.443Z,977.27
2022-08-30T11:55:35.402Z,977.25
2022-08-30T11:56:35.475Z,977.28
2022-08-30T11:57:35.383Z,977.29
2022-08-30T11:58:35.390Z,977.23
2022-08-30T11:59:35.360Z,977.24
2022-08-30T12:00:35.473Z,977.22
2022-08-30T12:01:51.152Z,977.23
2022-08-30T12:02:37.504Z,977.24
2022-08-30T12:03:35.435Z,977.29
2022-08-30T12:04:35.317Z,977.18
2022-08-30T12:05:35.304Z,977.21
2022-08-30T12:06:35.290Z,977.17
2022-08-30T12:07:35.902Z,977.23
2022-08-30T12:08:36.108Z,977.22
2022-08-30T12:09:35.323Z,977.15
2022-08-30T12:10:35.281Z,977.21
2022-08-30T12:11:35.232Z,977.16
2022-08-30T12:12:35.194Z,977.09
2022-08-30T12:13:35.183Z,977.07
2022-08-30T12:14:35.182Z,977.13
2022-08-30T12:15:35.249Z,977.10
2022-08-30T12:16:35.260Z,977.06
2022-08-30T12:17:35.142Z,977.05
2022-08-30T12:18:35.151Z,977.08
2022-08-30T12:19:35.113Z,977.10
2022-08-30T12:20:35.146Z,977.07
2022-08-30T12:21:43.907Z,977.14
2022-08-30T12:22:35.282Z,977.10
2022-08-30T12:23:35.115Z,977.06
2022-08-30T12:24:35.185Z,977.05
2022-08-30T12:25:35.205Z,977.00
2022-08-30T12:26:35.058Z,976.98
2022-08-30T12:27:35.103Z,976.98
2022-08-30T12:28:35.070Z,976.98
2022-08-30T12:29:35.001Z,976.99
2022-08-30T12:30:35.030Z,976.97
2022-08-30T12:31:35.257Z,976.98
2022-08-30T12:32:35.068Z,977.01
2022-08-30T12:33:41.321Z,976.97
2022-08-30T12:34:35.966Z,976.92
2022-08-30T12:35:35.181Z,976.91
2022-08-30T12:36:35.125Z,976.97
2022-08-30T12:37:34.934Z,976.90
2022-08-30T12:38:34.944Z,976.91
2022-08-30T12:39:34.930Z,976.94
2022-08-30T12:40:35.011Z,976.87
2022-08-30T12:41:34.894Z,976.90
2022-08-30T12:46:42.908Z,976.92
2022-08-30T12:47:43.363Z,976.96
2022-08-30T12:48:42.819Z,976.95
2022-08-30T12:49:42.940Z,976.94
2022-08-30T12:50:42.720Z,977.02
2022-08-30T12:51:42.742Z,976.95
2022-08-30T12:52:42.728Z,976.96
2022-08-30T12:53:42.728Z,976.93
2022-08-30T12:54:42.725Z,976.96
2022-08-30T12:55:42.701Z,976.92
2022-08-30T12:56:49.934Z,976.92
2022-08-30T12:57:43.678Z,976.86
2022-08-30T12:58:42.628Z,976.85
2022-08-30T12:59:44.392Z,976.83
2022-08-30T13:00:42.875Z,976.86
2022-08-30T13:01:42.759Z,976.82
2022-08-30T13:02:42.646Z,976.77
2022-08-30T13:03:42.621Z,976.75
2022-08-30T13:04:42.561Z,976.80
2022-08-30T13:05:45.786Z,976.82
2022-08-30T13:06:42.541Z,976.80
2022-08-30T13:07:42.582Z,976.84
2022-08-30T13:08:42.523Z,976.80
2022-08-30T13:09:42.642Z,976.81
2022-08-30T13:10:42.530Z,976.81
2022-08-30T13:11:42.466Z,976.80
2022-08-30T13:12:42.472Z,976.80
2022-08-30T13:13:44.337Z,976.79
2022-08-30T13:14:43.771Z,976.76
2022-08-30T13:15:43.691Z,976.81
2022-08-30T13:16:45.454Z,976.80
2022-08-30T13:17:43.623Z,976.90
2022-08-30T13:18:43.574Z,976.80
2022-08-30T13:19:43.557Z,976.86
2022-08-30T13:20:43.521Z,976.81
2022-08-30T13:21:43.519Z,976.83
2022-08-30T13:22:43.492Z,976.79
2022-08-30T13:23:43.469Z,976.79
2022-08-30T13:24:43.462Z,976.82
2022-08-30T13:25:43.486Z,976.81
2022-08-30T13:26:43.455Z,976.83
2022-08-30T13:27:43.452Z,976.77
2022-08-30T13:28:43.417Z,976.81
2022-08-30T13:29:44.423Z,976.81
2022-08-30T13:30:43.469Z,976.78
2022-08-30T13:31:43.476Z,976.76
2022-08-30T13:32:43.409Z,976.78
2022-08-30T13:33:43.383Z,976.78
2022-08-30T13:34:43.393Z,976.75
2022-08-30T13:35:43.331Z,976.69
2022-08-30T13:36:44.826Z,976.69
2022-08-30T13:37:49.569Z,976.76
2022-08-30T13:38:45.323Z,976.66
2022-08-30T13:39:43.343Z,976.73
2022-08-30T13:40:43.335Z,976.74
2022-08-30T13:41:43.384Z,976.66
2022-08-30T13:42:43.240Z,976.65
2022-08-30T13:44:43.262Z,976.70
2022-08-30T13:45:43.465Z,976.65
2022-08-30T13:46:43.465Z,976.63
2022-08-30T13:47:43.375Z,976.63
2022-08-30T13:48:43.223Z,976.60
2022-08-30T13:49:43.824Z,976.67
2022-08-30T13:50:44.180Z,976.69
2022-08-30T13:51:58.117Z,976.65
2022-08-30T13:52:43.191Z,976.66
2022-08-30T13:53:58.522Z,976.64
2022-08-30T13:54:45.121Z,976.66
2022-08-30T13:55:43.259Z,976.62
2022-08-30T13:56:43.140Z,976.68
2022-08-30T13:57:58.382Z,976.69
2022-08-30T13:58:45.096Z,976.65
2022-08-30T13:59:43.072Z,976.65
2022-08-30T14:00:43.089Z,976.65
2022-08-30T14:02:48.797Z,976.66
2022-08-30T14:04:43.098Z,976.72
2022-08-30T14:06:00.474Z,976.70
2022-08-30T14:07:43.031Z,976.69
2022-08-30T14:08:45.278Z,976.71
2022-08-30T14:09:43.976Z,976.66
2022-08-30T14:10:47.163Z,976.67
2022-08-30T14:11:43.955Z,976.69
2022-08-30T14:13:08.181Z,976.67
2022-08-30T14:14:44.198Z,976.71
2022-08-30T14:15:42.879Z,976.64
2022-08-30T14:16:42.942Z,976.60
2022-08-30T14:17:42.882Z,976.66
2022-08-30T14:18:42.876Z,976.66
2022-08-30T14:19:42.874Z,976.62
2022-08-30T14:20:43.908Z,976.61
2022-08-30T14:21:43.115Z,976.60
2022-08-30T14:22:42.854Z,976.65
2022-08-30T14:23:42.855Z,976.58
2022-08-30T14:24:42.809Z,976.57
2022-08-30T14:25:42.820Z,976.58
2022-08-30T14:26:43.478Z,976.53
2022-08-30T14:27:42.862Z,976.53
2022-08-30T14:28:42.813Z,976.54
2022-08-30T14:29:43.122Z,976.58
2022-08-30T14:30:42.756Z,976.59
2022-08-30T14:31:42.795Z,976.60
2022-08-30T14:32:42.981Z,976.56
2022-08-30T14:33:42.708Z,976.59
2022-08-30T14:34:42.685Z,976.56
2022-08-30T14:35:42.685Z,976.63
2022-08-30T14:36:42.662Z,976.61
2022-08-30T14:37:42.702Z,976.57
2022-08-30T14:38:42.929Z,976.58
2022-08-30T14:39:42.619Z,976.60
2022-08-30T14:40:42.658Z,976.57
2022-08-30T14:41:43.625Z,976.55
2022-08-30T14:42:42.620Z,976.57
2022-08-30T14:43:42.628Z,976.60
2022-08-30T14:44:55.843Z,976.55
2022-08-30T14:45:42.611Z,976.55
2022-08-30T14:48:53.421Z,976.57
2022-08-30T14:48:59.983Z,976.55
2022-08-30T14:49:59.931Z,976.58
2022-08-30T14:51:00.039Z,976.60
2022-08-30T14:51:59.932Z,976.61
2022-08-30T14:52:59.955Z,976.59
2022-08-30T14:53:59.911Z,976.52
2022-08-30T14:55:05.268Z,976.56
2022-08-30T14:55:59.953Z,976.55
2022-08-30T14:57:00.945Z,976.54
2022-08-30T14:57:59.860Z,976.57
2022-08-30T14:58:59.793Z,976.56
2022-08-30T14:59:59.802Z,976.57
2022-08-30T15:00:59.906Z,976.52
2022-08-30T15:01:59.855Z,976.57
2022-08-30T15:02:59.814Z,976.57
2022-08-30T15:03:59.818Z,976.50
2022-08-30T15:04:59.874Z,976.49
2022-08-30T15:05:59.711Z,976.57
2022-08-30T15:06:59.692Z,976.47
2022-08-30T15:07:59.695Z,976.51
2022-08-30T15:09:00.006Z,976.43
2022-08-30T15:09:59.693Z,976.42
2022-08-30T15:10:59.666Z,976.40
2022-08-30T15:11:59.642Z,976.41
2022-08-30T15:12:59.633Z,976.45
2022-08-30T15:13:59.669Z,976.41
2022-08-30T15:14:59.611Z,976.39
2022-08-30T15:15:59.597Z,976.40
2022-08-30T15:16:59.570Z,976.40
2022-08-30T15:17:59.808Z,976.32
2022-08-30T15:18:59.561Z,976.41
2022-08-30T15:19:59.521Z,976.35
2022-08-30T15:20:59.513Z,976.29
2022-08-30T15:21:59.505Z,976.36
2022-08-30T15:22:59.496Z,976.36
2022-08-30T15:23:59.490Z,976.35
2022-08-30T15:24:59.492Z,976.29
2022-08-30T15:25:59.462Z,976.31
2022-08-30T15:26:59.728Z,976.29
2022-08-30T15:27:59.442Z,976.28
2022-08-30T15:28:59.435Z,976.31
2022-08-30T15:29:59.431Z,976.30
2022-08-30T15:30:59.525Z,976.35
2022-08-30T15:31:59.423Z,976.38
2022-08-30T15:32:59.391Z,976.35
2022-08-30T15:33:59.363Z,976.28
2022-08-30T15:34:59.398Z,976.30
2022-08-30T15:35:59.351Z,976.26
2022-08-30T15:36:59.337Z,976.25
2022-08-30T15:37:59.338Z,976.23
2022-08-30T15:38:59.323Z,976.24
2022-08-30T15:39:59.384Z,976.24
2022-08-30T15:40:59.306Z,976.28
2022-08-30T15:42:01.011Z,976.21
2022-08-30T15:42:59.348Z,976.18
2022-08-30T15:43:59.254Z,976.22
2022-08-30T15:44:59.329Z,976.24
2022-08-30T15:45:59.260Z,976.16
2022-08-30T15:46:59.295Z,976.26
2022-08-30T15:47:59.243Z,976.26
2022-08-30T15:48:59.228Z,976.23
2022-08-30T15:49:59.269Z,976.22
2022-08-30T15:50:59.186Z,976.16
2022-08-30T15:52:34.464Z,976.20
2022-08-30T15:52:59.491Z,976.22
2022-08-30T15:53:59.293Z,976.16
2022-08-30T15:54:59.565Z,976.17
2022-08-30T15:55:59.926Z,976.13
2022-08-30T15:56:59.750Z,976.05
2022-08-30T15:57:59.265Z,976.10
2022-08-30T15:58:59.117Z,976.14
2022-08-30T15:59:59.087Z,976.05
2022-08-30T16:00:59.358Z,976.10
2022-08-30T16:01:59.337Z,976.09
2022-08-30T16:02:59.145Z,976.08
2022-08-30T16:03:59.120Z,976.07
2022-08-30T16:04:59.075Z,976.07
2022-08-30T16:05:59.141Z,976.06
2022-08-30T16:06:59.252Z,976.08
2022-08-30T16:07:59.737Z,976.11
2022-08-30T16:08:58.997Z,976.10
2022-08-30T16:09:59.297Z,976.01
2022-08-30T16:10:59.384Z,976.02
2022-08-30T16:11:59.154Z,976.09
2022-08-30T16:12:59.064Z,976.06
2022-08-30T16:13:59.024Z,976.09
2022-08-30T16:14:58.988Z,976.07
2022-08-30T16:15:58.977Z,976.04
2022-08-30T16:16:58.953Z,976.03
2022-08-30T16:17:59.262Z,976.08
2022-08-30T16:18:58.962Z,976.05
2022-08-30T16:19:59.134Z,976.08
2022-08-30T16:20:59.024Z,975.99
2022-08-30T16:21:58.850Z,976.03
2022-08-30T16:22:58.883Z,976.10
2022-08-30T16:23:58.844Z,976.07
2022-08-30T16:24:58.850Z,976.03
2022-08-30T16:26:04.257Z,976.11
2022-08-30T16:26:58.858Z,976.09
2022-08-30T16:27:59.260Z,976.11
2022-08-30T16:28:58.831Z,976.06
2022-08-30T16:29:58.795Z,976.05
2022-08-30T16:30:58.901Z,976.06
2022-08-30T16:31:58.901Z,975.98
2022-08-30T16:32:58.747Z,976.05
2022-08-30T16:34:03.670Z,976.07
2022-08-30T16:34:58.712Z,976.02
2022-08-30T16:35:58.784Z,976.06
2022-08-30T16:36:58.719Z,976.12
2022-08-30T16:37:58.932Z,976.05
2022-08-30T16:38:58.689Z,976.03
2022-08-30T16:39:58.890Z,976.06
2022-08-30T16:40:58.723Z,976.07
2022-08-30T16:41:58.675Z,976.08
2022-08-30T16:42:58.725Z,976.03
2022-08-30T16:43:58.624Z,976.05
2022-08-30T16:44:58.638Z,976.03
2022-08-30T16:45:58.635Z,976.01
2022-08-30T16:46:58.704Z,975.97
2022-08-30T16:47:58.794Z,976.02
2022-08-30T16:48:58.750Z,976.04
2022-08-30T16:49:58.619Z,976.04
2022-08-30T16:50:59.153Z,976.04
2022-08-30T16:51:58.508Z,976.06
2022-08-30T16:52:58.497Z,976.02
2022-08-30T16:53:58.488Z,976.06
2022-08-30T16:54:58.473Z,976.00
2022-08-30T16:55:58.430Z,976.03
2022-08-30T16:56:58.415Z,976.00
2022-08-30T16:57:58.487Z,975.95
2022-08-30T16:59:02.613Z,975.99
2022-08-30T16:59:58.518Z,976.03
2022-08-30T17:00:58.444Z,976.02
2022-08-30T17:01:58.464Z,976.04
2022-08-30T17:02:58.426Z,976.03
2022-08-30T17:03:58.547Z,976.08
2022-08-30T17:04:58.346Z,976.03
2022-08-30T17:05:58.347Z,976.07
2022-08-30T17:06:58.734Z,975.99
2022-08-30T17:07:58.367Z,975.96
2022-08-30T17:08:58.277Z,976.02
2022-08-30T17:09:58.484Z,975.96
2022-08-30T17:10:58.264Z,976.01
2022-08-30T17:11:58.255Z,976.02
2022-08-30T17:12:58.253Z,976.09
2022-08-30T17:13:58.243Z,976.07
2022-08-30T17:14:58.220Z,976.03
2022-08-30T17:15:58.356Z,976.05
2022-08-30T17:16:58.186Z,976.05
2022-08-30T17:17:58.175Z,976.12
2022-08-30T17:18:59.887Z,976.08
2022-08-30T17:19:58.166Z,976.14
2022-08-30T17:20:58.166Z,976.08
2022-08-30T17:21:58.416Z,976.04
2022-08-30T17:22:58.118Z,976.12
2022-08-30T17:24:01.648Z,976.09
2022-08-30T17:24:58.096Z,976.07
2022-08-30T17:25:58.089Z,976.13
2022-08-30T17:26:58.280Z,976.13
2022-08-30T17:27:58.089Z,976.12
2022-08-30T17:28:58.164Z,976.11
2022-08-30T17:29:58.026Z,976.08
2022-08-30T17:30:58.077Z,976.16
2022-08-30T17:31:58.100Z,976.14
2022-08-30T17:32:57.998Z,976.15
2022-08-30T17:34:01.236Z,976.08
2022-08-30T17:34:57.988Z,976.07
2022-08-30T17:35:57.976Z,976.20
2022-08-30T17:36:57.939Z,976.16
2022-08-30T17:37:57.925Z,976.16
2022-08-30T17:38:57.935Z,976.22
2022-08-30T17:39:57.949Z,976.18
2022-08-30T17:40:57.898Z,976.23
2022-08-30T17:41:57.880Z,976.21
2022-08-30T17:42:57.886Z,976.29
2022-08-30T17:43:57.857Z,976.26
2022-08-30T17:45:01.250Z,976.27
2022-08-30T17:45:57.842Z,976.28
2022-08-30T17:46:57.899Z,976.29
2022-08-30T17:47:57.820Z,976.33
2022-08-30T17:49:01.247Z,976.36
2022-08-30T17:49:57.813Z,976.36
2022-08-30T17:50:57.816Z,976.37
2022-08-30T17:51:57.923Z,976.36
2022-08-30T17:52:57.753Z,976.38
2022-08-30T17:53:57.731Z,976.40
2022-08-30T17:54:57.741Z,976.38
2022-08-30T17:55:57.702Z,976.27
2022-08-30T17:56:57.694Z,976.35
2022-08-30T17:57:57.687Z,976.35
2022-08-30T17:58:57.694Z,976.39
2022-08-30T17:59:57.693Z,976.34
2022-08-30T18:00:57.701Z,976.38
2022-08-30T18:01:57.700Z,976.44
2022-08-30T18:02:57.917Z,976.45
2022-08-30T18:04:01.563Z,976.45
2022-08-30T18:04:58.169Z,976.50
2022-08-30T18:05:57.582Z,976.55
2022-08-30T18:06:57.623Z,976.49
2022-08-30T18:07:57.589Z,976.60
2022-08-30T18:08:57.560Z,976.60
2022-08-30T18:09:57.573Z,976.60
2022-08-30T18:10:57.526Z,976.61
2022-08-30T18:11:57.572Z,976.58
2022-08-30T18:12:57.503Z,976.57
2022-08-30T18:13:58.094Z,976.59
2022-08-30T18:14:57.475Z,976.61
2022-08-30T18:15:57.514Z,976.61
2022-08-30T18:16:57.480Z,976.61
2022-08-30T18:17:57.438Z,976.66
2022-08-30T18:18:57.697Z,976.64
2022-08-30T18:19:57.757Z,976.63
2022-08-30T18:20:57.408Z,976.63
2022-08-30T18:21:57.392Z,976.64
2022-08-30T18:22:57.384Z,976.68
2022-08-30T18:23:57.825Z,976.72
2022-08-30T18:25:02.128Z,976.76
2022-08-30T18:25:57.505Z,976.74
2022-08-30T18:26:57.387Z,976.74
2022-08-30T18:27:58.895Z,976.77
2022-08-30T18:28:57.315Z,976.76
2022-08-30T18:29:57.357Z,976.73
2022-08-30T18:30:57.372Z,976.74
2022-08-30T18:31:57.326Z,976.74
2022-08-30T18:32:57.284Z,976.74
2022-08-30T18:33:57.452Z,976.81
2022-08-30T18:34:57.262Z,976.84
2022-08-30T18:35:57.310Z,976.81
2022-08-30T18:36:57.248Z,976.85
2022-08-30T18:37:57.255Z,976.86
2022-08-30T18:38:57.199Z,976.79
2022-08-30T18:39:57.191Z,976.83
2022-08-30T18:40:57.218Z,976.86
2022-08-30T18:41:57.194Z,976.86
2022-08-30T18:42:57.181Z,976.81
2022-08-30T18:44:11.267Z,976.86
2022-08-30T18:44:57.145Z,976.80
2022-08-30T18:45:57.150Z,976.85
2022-08-30T18:46:57.352Z,976.83
2022-08-30T18:47:57.118Z,976.80
2022-08-30T18:48:57.105Z,976.85
2022-08-30T18:49:57.732Z,976.87
2022-08-30T18:50:57.249Z,976.87
2022-08-30T18:51:58.067Z,976.84
2022-08-30T18:52:57.085Z,976.81
2022-08-30T18:53:57.046Z,976.83
2022-08-30T18:54:57.065Z,976.80